createdAt,value
2018-08-10T00:00:22.207Z,19.27
2018-08-10T00:03:26.811Z,19.51
2018-08-10T00:05:55.370Z,19.37
2018-08-10T00:08:23.814Z,19.73
2018-08-10T00:10:52.271Z,19.50
2018-08-10T00:13:20.882Z,19.13
2018-08-10T00:15:49.251Z,19.44
2018-08-10T00:18:17.787Z,19.00
2018-08-10T00:20:46.211Z,18.96
2018-08-10T00:23:14.619Z,18.96
2018-08-10T00:25:43.143Z,19.16
2018-08-10T00:28:11.689Z,19.01
2018-08-10T00:30:40.155Z,18.64
2018-08-10T00:33:08.635Z,18.67
2018-08-10T00:35:37.501Z,18.96
2018-08-10T00:38:05.975Z,18.57
2018-08-10T00:40:34.527Z,18.64
2018-08-10T00:43:03.022Z,18.33
2018-08-10T00:45:31.507Z,18.87
2018-08-10T00:48:00.008Z,18.43
2018-08-10T00:50:28.605Z,18.46
2018-08-10T00:52:57.115Z,18.28
2018-08-10T00:55:25.559Z,18.16
2018-08-10T00:57:54.226Z,17.89
2018-08-10T01:00:24.030Z,18.20
2018-08-10T01:02:53.386Z,18.05
2018-08-10T01:05:22.080Z,17.99
2018-08-10T01:07:50.683Z,18.24
2018-08-10T01:10:20.488Z,17.92
2018-08-10T01:12:49.159Z,18.09
2018-08-10T01:15:18.259Z,17.94
2018-08-10T01:17:47.340Z,18.26
2018-08-10T01:20:20.361Z,18.30
2018-08-10T01:22:54.155Z,18.41
2018-08-10T01:25:23.919Z,17.74
2018-08-10T01:27:55.649Z,17.88
2018-08-10T01:30:24.987Z,17.72
2018-08-10T01:32:54.019Z,17.86
2018-08-10T01:35:23.204Z,17.84
2018-08-10T01:37:51.627Z,18.18
2018-08-10T01:40:20.063Z,18.50
2018-08-10T01:42:48.687Z,17.95
2018-08-10T01:45:17.367Z,17.80
2018-08-10T01:47:45.818Z,18.09
2018-08-10T01:50:14.411Z,18.33
2018-08-10T01:52:43.210Z,17.67
2018-08-10T01:55:12.047Z,17.91
2018-08-10T01:57:40.911Z,17.63
2018-08-10T02:00:10.299Z,17.36
2018-08-10T02:02:39.006Z,17.55
2018-08-10T02:05:10.731Z,17.50
2018-08-10T02:07:39.986Z,17.57
2018-08-10T02:10:10.716Z,17.54
2018-08-10T02:12:39.870Z,18.02
2018-08-10T02:15:10.573Z,17.86
2018-08-10T02:17:39.512Z,17.37
2018-08-10T02:20:10.447Z,17.48
2018-08-10T02:22:38.915Z,17.39
2018-08-10T02:25:09.154Z,17.31
2018-08-10T02:27:37.615Z,17.56
2018-08-10T02:30:08.070Z,17.50
2018-08-10T02:32:36.935Z,17.30
2018-08-10T02:35:06.007Z,17.11
2018-08-10T02:37:34.599Z,17.25
2018-08-10T02:40:03.360Z,17.42
2018-08-10T02:42:31.907Z,17.30
2018-08-10T02:45:00.355Z,17.24
2018-08-10T02:47:28.814Z,17.22
2018-08-10T02:49:57.291Z,17.09
2018-08-10T02:52:25.807Z,17.03
2018-08-10T02:54:54.809Z,17.06
2018-08-10T02:57:23.227Z,17.14
2018-08-10T02:59:51.665Z,17.02
2018-08-10T03:02:20.628Z,17.06
2018-08-10T03:04:49.115Z,17.11
2018-08-10T03:07:17.572Z,16.95
2018-08-10T03:09:46.062Z,17.02
2018-08-10T03:12:14.547Z,16.80
2018-08-10T03:14:43.547Z,16.91
2018-08-10T03:17:12.600Z,16.79
2018-08-10T03:19:41.057Z,16.77
2018-08-10T03:22:09.573Z,16.53
2018-08-10T03:24:38.288Z,16.62
2018-08-10T03:27:07.769Z,17.17
2018-08-10T03:29:36.559Z,16.75
2018-08-10T03:32:05.328Z,16.61
2018-08-10T03:34:33.739Z,16.57
2018-08-10T03:37:02.188Z,16.80
2018-08-10T03:39:30.788Z,16.63
2018-08-10T03:41:59.340Z,16.53
2018-08-10T03:44:27.751Z,16.41
2018-08-10T03:46:56.219Z,16.37
2018-08-10T03:49:24.675Z,16.08
2018-08-10T03:51:53.424Z,16.04
2018-08-10T03:54:22.238Z,15.91
2018-08-10T03:56:50.780Z,15.78
2018-08-10T03:59:19.275Z,15.58
2018-08-10T04:01:48.043Z,15.54
2018-08-10T04:04:16.455Z,15.34
2018-08-10T04:06:45.097Z,15.39
2018-08-10T04:09:13.971Z,15.37
2018-08-10T04:11:43.327Z,14.68
2018-08-10T04:14:11.912Z,14.67
2018-08-10T04:16:40.896Z,14.37
2018-08-10T04:19:09.424Z,14.72
2018-08-10T04:21:37.949Z,14.58
2018-08-10T04:24:06.454Z,14.55
2018-08-10T04:26:34.863Z,14.03
2018-08-10T04:29:03.455Z,14.15
2018-08-10T04:31:31.994Z,14.06
2018-08-10T04:34:00.377Z,14.17
2018-08-10T04:36:28.801Z,14.07
2018-08-10T04:38:57.509Z,14.14
2018-08-10T04:41:25.922Z,14.06
2018-08-10T04:43:54.429Z,14.38
2018-08-10T04:46:22.914Z,14.66
2018-08-10T04:48:51.528Z,14.76
2018-08-10T04:51:19.987Z,14.78
2018-08-10T04:53:48.543Z,14.91
2018-08-10T04:56:17.007Z,15.48
2018-08-10T04:58:45.500Z,16.61
2018-08-10T05:01:14.158Z,17.25
2018-08-10T05:03:42.620Z,17.69
2018-08-10T05:06:11.175Z,17.83
2018-08-10T05:08:39.685Z,18.55
2018-08-10T05:11:08.176Z,18.81
2018-08-10T05:13:36.658Z,19.16
2018-08-10T05:16:05.217Z,19.29
2018-08-10T05:18:33.748Z,19.33
2018-08-10T05:21:02.239Z,19.57
2018-08-10T05:23:31.297Z,19.68
2018-08-10T05:25:59.897Z,19.75
2018-08-10T05:28:28.572Z,20.23
2018-08-10T05:30:57.203Z,20.30
2018-08-10T05:33:25.667Z,20.41
2018-08-10T05:35:54.118Z,20.23
2018-08-10T05:38:22.683Z,20.50
2018-08-10T05:40:51.106Z,20.50
2018-08-10T05:43:19.598Z,20.70
2018-08-10T05:45:48.104Z,20.89
2018-08-10T05:48:16.648Z,20.37
2018-08-10T05:50:45.335Z,20.72
2018-08-10T05:53:14.187Z,20.90
2018-08-10T05:55:42.715Z,20.46
2018-08-10T05:58:11.186Z,20.96
2018-08-10T06:00:39.825Z,20.86
2018-08-10T06:03:08.260Z,21.01
2018-08-10T06:05:36.803Z,21.53
2018-08-10T06:08:05.319Z,20.93
2018-08-10T06:10:33.761Z,21.02
2018-08-10T06:13:02.320Z,21.33
2018-08-10T06:15:30.861Z,21.10
2018-08-10T06:17:59.378Z,21.08
2018-08-10T06:20:27.853Z,21.12
2018-08-10T06:22:56.620Z,21.21
2018-08-10T06:25:24.953Z,20.94
2018-08-10T06:27:53.420Z,21.13
2018-08-10T06:30:21.891Z,20.90
2018-08-10T06:32:50.327Z,20.52
2018-08-10T06:35:18.761Z,20.73
2018-08-10T06:37:47.218Z,20.22
2018-08-10T06:40:15.704Z,20.44
2018-08-10T06:42:44.155Z,20.73
2018-08-10T06:45:12.733Z,20.26
2018-08-10T06:47:41.004Z,20.20
2018-08-10T06:50:09.507Z,20.40
2018-08-10T06:52:38.223Z,20.36
2018-08-10T06:55:06.639Z,20.49
2018-08-10T06:57:35.611Z,20.95
2018-08-10T07:00:05.131Z,20.64
2018-08-10T07:02:33.544Z,20.36
2018-08-10T07:05:01.980Z,20.67
2018-08-10T07:07:30.620Z,20.70
2018-08-10T07:09:59.276Z,20.26
2018-08-10T07:12:27.675Z,20.62
2018-08-10T07:14:56.306Z,20.79
2018-08-10T07:17:24.771Z,21.00
2018-08-10T07:19:53.177Z,20.95
2018-08-10T07:22:21.651Z,20.82
2018-08-10T07:24:50.111Z,20.47
2018-08-10T07:27:18.566Z,20.81
2018-08-10T07:29:46.984Z,20.95
2018-08-10T07:32:15.383Z,20.79
2018-08-10T07:34:43.882Z,21.11
2018-08-10T07:37:12.310Z,21.44
2018-08-10T07:39:40.847Z,21.54
2018-08-10T07:42:09.284Z,21.62
2018-08-10T07:44:37.793Z,21.30
2018-08-10T07:47:06.331Z,21.37
2018-08-10T07:49:34.767Z,21.42
2018-08-10T07:52:03.372Z,21.36
2018-08-10T07:54:31.831Z,22.22
2018-08-10T07:57:00.329Z,22.15
2018-08-10T07:59:28.849Z,21.19
2018-08-10T08:01:57.318Z,21.49
2018-08-10T08:04:25.744Z,22.28
2018-08-10T08:06:54.381Z,21.22
2018-08-10T08:09:22.824Z,21.18
2018-08-10T08:11:51.203Z,21.29
2018-08-10T08:14:19.736Z,21.70
2018-08-10T08:16:48.139Z,21.71
2018-08-10T08:19:16.919Z,21.87
2018-08-10T08:22:11.507Z,22.17
2018-08-10T08:24:40.809Z,22.52
2018-08-10T08:27:09.820Z,22.56
2018-08-10T08:29:38.392Z,22.51
2018-08-10T08:32:07.135Z,22.02
2018-08-10T08:34:35.603Z,21.98
2018-08-10T08:37:04.863Z,22.11
2018-08-10T08:40:45.767Z,22.22
2018-08-10T08:43:14.859Z,22.28
2018-08-10T08:45:49.576Z,23.07
2018-08-10T08:48:18.028Z,22.63
2018-08-10T08:50:48.000Z,22.72
2018-08-10T08:53:16.387Z,22.85
2018-08-10T08:55:51.259Z,22.37
2018-08-10T08:58:19.943Z,22.32
2018-08-10T09:00:48.406Z,22.83
2018-08-10T09:03:28.747Z,23.18
2018-08-10T09:05:57.710Z,22.96
2018-08-10T09:08:26.135Z,22.57
2018-08-10T09:10:56.064Z,22.84
2018-08-10T09:13:25.311Z,22.97
2018-08-10T09:15:53.922Z,22.61
2018-08-10T09:18:22.399Z,22.70
2018-08-10T09:20:51.237Z,22.29
2018-08-10T09:23:19.757Z,22.79
2018-08-10T09:25:48.479Z,22.46
2018-08-10T09:28:16.855Z,22.42
2018-08-10T09:30:45.423Z,22.45
2018-08-10T09:33:13.995Z,22.50
2018-08-10T09:35:42.503Z,23.57
2018-08-10T09:38:10.919Z,23.35
2018-08-10T09:40:39.449Z,23.79
2018-08-10T09:43:07.860Z,24.08
2018-08-10T09:45:36.360Z,24.32
2018-08-10T09:48:05.171Z,24.69
2018-08-10T09:50:33.663Z,24.45
2018-08-10T09:53:03.466Z,24.94
2018-08-10T09:55:36.430Z,25.09
2018-08-10T09:58:09.274Z,24.38
2018-08-10T10:00:43.024Z,24.73
2018-08-10T10:03:17.575Z,25.28
2018-08-10T10:05:46.734Z,25.12
2018-08-10T10:08:15.539Z,24.39
2018-08-10T10:10:43.970Z,25.01
2018-08-10T10:13:12.887Z,24.48
2018-08-10T10:15:42.064Z,24.29
2018-08-10T10:18:13.670Z,23.86
2018-08-10T10:20:42.563Z,24.36
2018-08-10T10:23:11.126Z,24.24
2018-08-10T10:25:39.775Z,23.67
2018-08-10T10:28:08.395Z,24.24
2018-08-10T10:30:36.887Z,24.24
2018-08-10T10:33:05.789Z,24.85
2018-08-10T10:35:34.284Z,24.26
2018-08-10T10:38:02.710Z,24.95
2018-08-10T10:40:31.439Z,24.89
2018-08-10T10:42:59.915Z,25.17
2018-08-10T10:45:28.382Z,25.17
2018-08-10T10:47:56.959Z,24.92
2018-08-10T10:50:25.406Z,24.88
2018-08-10T10:52:53.835Z,25.38
2018-08-10T10:55:22.439Z,25.48
2018-08-10T10:57:50.875Z,25.47
2018-08-10T11:00:20.577Z,26.03
2018-08-10T11:02:49.623Z,25.89
2018-08-10T11:05:18.404Z,26.26
2018-08-10T11:07:50.858Z,26.02
2018-08-10T11:10:20.045Z,25.93
2018-08-10T11:12:48.486Z,26.26
2018-08-10T11:15:16.914Z,26.48
2018-08-10T11:17:45.340Z,26.76
2018-08-10T11:20:14.423Z,26.83
2018-08-10T11:22:43.287Z,26.98
2018-08-10T11:25:13.085Z,26.58
2018-08-10T11:27:42.259Z,26.07
2018-08-10T11:30:11.337Z,25.61
2018-08-10T11:32:40.043Z,25.76
2018-08-10T11:35:09.283Z,25.87
2018-08-10T11:37:38.028Z,25.83
2018-08-10T11:40:10.191Z,26.42
2018-08-10T11:42:38.935Z,26.11
2018-08-10T11:45:09.763Z,25.96
2018-08-10T11:47:38.739Z,26.49
2018-08-10T11:50:07.566Z,26.53
2018-08-10T11:52:36.360Z,26.29
2018-08-10T11:55:05.387Z,25.75
2018-08-10T11:57:33.876Z,26.09
2018-08-10T12:00:02.361Z,26.03
2018-08-10T12:02:30.755Z,26.36
2018-08-10T12:04:59.164Z,26.52
2018-08-10T12:07:27.627Z,26.54
2018-08-10T12:09:56.618Z,26.15
2018-08-10T12:12:25.054Z,26.71
2018-08-10T12:14:53.801Z,25.95
2018-08-10T12:17:22.372Z,26.62
2018-08-10T12:19:50.891Z,26.37
2018-08-10T12:22:19.347Z,26.52
2018-08-10T12:24:47.870Z,26.51
2018-08-10T12:27:16.284Z,26.12
2018-08-10T12:29:44.843Z,26.31
2018-08-10T12:32:13.235Z,26.14
2018-08-10T12:34:41.631Z,25.83
2018-08-10T12:37:10.108Z,25.67
2018-08-10T12:39:38.530Z,25.07
2018-08-10T12:42:07.175Z,25.28
2018-08-10T12:44:35.707Z,25.15
2018-08-10T12:47:04.173Z,24.85
2018-08-10T12:49:32.560Z,24.72
2018-08-10T12:52:01.190Z,25.19
2018-08-10T12:54:29.715Z,25.18
2018-08-10T12:56:58.160Z,25.55
2018-08-10T12:59:26.662Z,25.24
2018-08-10T13:01:55.222Z,25.70
2018-08-10T13:04:23.715Z,25.68
2018-08-10T13:06:52.382Z,25.31
2018-08-10T13:09:20.771Z,25.28
2018-08-10T13:11:49.222Z,25.76
2018-08-10T13:14:17.897Z,25.73
2018-08-10T13:16:46.355Z,25.62
2018-08-10T13:19:14.811Z,26.11
2018-08-10T13:21:43.442Z,26.09
2018-08-10T13:24:11.961Z,26.18
2018-08-10T13:26:40.407Z,25.77
2018-08-10T13:29:08.863Z,25.47
2018-08-10T13:31:37.363Z,25.90
2018-08-10T13:34:05.835Z,25.89
2018-08-10T13:36:34.280Z,26.05
2018-08-10T13:39:02.735Z,26.14
2018-08-10T13:41:31.227Z,26.04
2018-08-10T13:43:59.979Z,25.53
2018-08-10T13:46:28.498Z,25.68
2018-08-10T13:48:56.932Z,26.35
2018-08-10T13:51:25.399Z,26.73
2018-08-10T13:53:53.911Z,26.31
2018-08-10T13:56:22.435Z,26.20
2018-08-10T13:58:51.045Z,26.03
2018-08-10T14:01:19.498Z,25.92
2018-08-10T14:03:47.992Z,25.24
2018-08-10T14:06:16.614Z,25.29
2018-08-10T14:08:45.060Z,25.44
2018-08-10T14:11:13.548Z,25.62
2018-08-10T14:13:42.051Z,25.57
2018-08-10T14:16:10.579Z,25.26
2018-08-10T14:18:39.007Z,25.48
2018-08-10T14:21:07.763Z,25.59
2018-08-10T14:23:36.199Z,25.81
2018-08-10T14:26:04.747Z,25.42
2018-08-10T14:28:33.742Z,25.84
2018-08-10T14:31:02.222Z,26.21
2018-08-10T14:33:30.894Z,26.24
2018-08-10T14:35:59.327Z,26.11
2018-08-10T14:38:27.739Z,26.24
2018-08-10T14:40:56.230Z,26.19
2018-08-10T14:43:25.068Z,26.24
2018-08-10T14:45:53.540Z,26.95
2018-08-10T14:48:22.008Z,26.66
2018-08-10T14:50:50.443Z,26.52
2018-08-10T14:53:18.871Z,26.70
2018-08-10T14:55:47.354Z,26.56
2018-08-10T14:58:16.033Z,26.94
2018-08-10T15:00:44.516Z,26.67
2018-08-10T15:03:12.855Z,26.59
2018-08-10T15:05:41.291Z,26.25
2018-08-10T15:08:09.703Z,26.21
2018-08-10T15:10:38.251Z,25.96
2018-08-10T15:13:06.840Z,26.61
2018-08-10T15:15:35.135Z,26.48
2018-08-10T15:18:03.547Z,26.56
2018-08-10T15:20:32.149Z,26.33
2018-08-10T15:23:00.735Z,26.76
2018-08-10T15:25:29.211Z,26.63
2018-08-10T15:27:57.851Z,26.61
2018-08-10T15:30:26.583Z,26.50
2018-08-10T15:32:55.115Z,26.24
2018-08-10T15:35:23.567Z,26.06
2018-08-10T15:37:52.044Z,26.04
2018-08-10T15:40:20.770Z,26.73
2018-08-10T15:42:49.435Z,26.70
2018-08-10T15:45:18.603Z,26.07
2018-08-10T15:47:47.481Z,26.04
2018-08-10T15:50:16.244Z,25.88
2018-08-10T15:52:45.770Z,25.60
2018-08-10T15:55:14.907Z,25.86
2018-08-10T15:57:43.693Z,25.94
2018-08-10T16:00:18.588Z,25.95
2018-08-10T16:02:47.415Z,26.01
2018-08-10T16:05:15.888Z,25.76
2018-08-10T16:07:44.743Z,25.72
2018-08-10T16:10:13.715Z,25.83
2018-08-10T16:12:42.183Z,26.09
2018-08-10T16:15:16.444Z,25.53
2018-08-10T16:17:44.943Z,25.59
2018-08-10T16:20:15.388Z,25.69
2018-08-10T16:22:43.814Z,25.85
2018-08-10T16:25:12.599Z,25.76
2018-08-10T16:27:42.332Z,25.65
2018-08-10T16:30:12.691Z,25.37
2018-08-10T16:32:42.102Z,25.42
2018-08-10T16:35:11.785Z,25.06
2018-08-10T16:37:41.472Z,24.86
2018-08-10T16:40:10.976Z,24.85
2018-08-10T16:42:40.619Z,25.20
2018-08-10T16:45:09.811Z,24.95
2018-08-10T16:47:39.039Z,25.19
2018-08-10T16:50:10.851Z,25.20
2018-08-10T16:52:40.647Z,24.75
2018-08-10T16:55:12.895Z,24.51
2018-08-10T16:57:42.553Z,24.56
2018-08-10T17:00:12.987Z,24.72
2018-08-10T17:02:41.462Z,24.73
2018-08-10T17:05:10.963Z,24.92
2018-08-10T17:07:40.199Z,24.76
2018-08-10T17:10:09.001Z,24.82
2018-08-10T17:12:39.138Z,24.92
2018-08-10T17:15:10.142Z,24.73
2018-08-10T17:17:38.659Z,24.53
2018-08-10T17:20:07.412Z,24.93
2018-08-10T17:22:35.852Z,24.62
2018-08-10T17:25:05.288Z,24.55
2018-08-10T17:27:33.725Z,24.80
2018-08-10T17:30:02.130Z,24.74
2018-08-10T17:32:30.626Z,24.52
2018-08-10T17:34:59.138Z,24.37
2018-08-10T17:37:27.607Z,24.38
2018-08-10T17:39:56.476Z,24.32
2018-08-10T17:42:24.947Z,24.22
2018-08-10T17:44:53.399Z,24.02
2018-08-10T17:47:22.530Z,24.26
2018-08-10T17:49:51.000Z,24.07
2018-08-10T17:52:19.426Z,24.20
2018-08-10T17:54:48.058Z,24.10
2018-08-10T17:57:16.483Z,24.23
2018-08-10T17:59:44.882Z,23.87
2018-08-10T18:02:13.641Z,23.71
2018-08-10T18:04:42.152Z,23.58
2018-08-10T18:07:10.665Z,23.47
2018-08-10T18:09:39.363Z,23.55
2018-08-10T18:12:07.854Z,23.40
2018-08-10T18:14:36.379Z,23.32
2018-08-10T18:17:04.870Z,23.34
2018-08-10T18:19:33.439Z,23.31
2018-08-10T18:22:01.943Z,23.18
2018-08-10T18:24:30.799Z,23.22
2018-08-10T18:26:59.352Z,23.11
2018-08-10T18:29:27.807Z,23.36
2018-08-10T18:31:56.247Z,23.25
2018-08-10T18:34:24.799Z,23.28
2018-08-10T18:36:53.339Z,22.99
2018-08-10T18:39:21.854Z,22.84
2018-08-10T18:41:50.263Z,22.93
2018-08-10T18:44:18.699Z,23.25
2018-08-10T18:46:47.617Z,23.19
2018-08-10T18:49:16.083Z,22.91
2018-08-10T18:51:44.548Z,22.86
2018-08-10T18:54:13.300Z,22.77
2018-08-10T18:56:41.712Z,22.51
2018-08-10T18:59:10.240Z,22.38
2018-08-10T19:01:39.059Z,22.36
2018-08-10T19:04:07.567Z,22.29
2018-08-10T19:06:36.168Z,22.16
2018-08-10T19:09:07.646Z,22.03
2018-08-10T19:11:36.200Z,21.93
2018-08-10T19:14:04.771Z,21.82
2018-08-10T19:16:33.345Z,21.83
2018-08-10T19:19:02.211Z,21.84
2018-08-10T19:21:31.315Z,21.79
2018-08-10T19:24:00.359Z,21.81
2018-08-10T19:26:29.352Z,21.82
2018-08-10T19:28:58.713Z,21.75
2018-08-10T19:31:27.771Z,21.22
2018-08-10T19:33:57.569Z,20.75
2018-08-10T19:36:26.427Z,20.22
2018-08-10T19:38:56.885Z,20.25
2018-08-10T19:41:26.142Z,20.62
2018-08-10T19:43:55.099Z,21.04
2018-08-10T19:46:24.035Z,20.76
2018-08-10T19:48:53.915Z,20.61
2018-08-10T19:51:22.778Z,20.10
2018-08-10T19:53:51.897Z,19.98
2018-08-10T19:56:20.865Z,19.68
2018-08-10T19:58:49.750Z,19.48
2018-08-10T20:01:19.139Z,19.30
2018-08-10T20:03:48.424Z,19.15
2018-08-10T20:06:17.827Z,19.13
2018-08-10T20:08:47.105Z,18.90
2018-08-10T20:11:16.581Z,18.86
2018-08-10T20:13:45.683Z,18.52
2018-08-10T20:16:15.062Z,18.55
2018-08-10T20:18:44.273Z,18.62
2018-08-10T20:21:13.714Z,18.73
2018-08-10T20:23:42.955Z,18.59
2018-08-10T20:26:12.448Z,18.67
2018-08-10T20:28:41.548Z,18.88
2018-08-10T20:31:10.675Z,18.67
2018-08-10T20:33:40.405Z,18.82
2018-08-10T20:36:09.749Z,18.75
2018-08-10T20:38:38.785Z,18.73
2018-08-10T20:41:07.949Z,18.59
2018-08-10T20:43:36.845Z,18.45
2018-08-10T20:46:05.688Z,18.12
2018-08-10T20:48:35.681Z,18.25
2018-08-10T20:51:04.651Z,17.73
2018-08-10T20:53:33.930Z,17.73
2018-08-10T20:56:03.021Z,17.49
2018-08-10T20:58:32.056Z,17.44
2018-08-10T21:01:00.964Z,17.61
2018-08-10T21:03:29.688Z,17.49
2018-08-10T21:05:58.725Z,17.37
2018-08-10T21:08:27.417Z,17.21
2018-08-10T21:10:56.091Z,17.22
2018-08-10T21:13:24.860Z,17.30
2018-08-10T21:15:53.750Z,16.95
2018-08-10T21:18:22.361Z,17.03
2018-08-10T21:20:50.848Z,17.17
2018-08-10T21:23:19.347Z,17.29
2018-08-10T21:25:47.853Z,17.17
2018-08-10T21:28:16.303Z,16.95
2018-08-10T21:30:44.769Z,16.71
2018-08-10T21:33:13.196Z,16.57
2018-08-10T21:35:41.920Z,16.88
2018-08-10T21:38:10.323Z,16.93
2018-08-10T21:40:38.742Z,16.80
2018-08-10T21:43:07.251Z,16.78
2018-08-10T21:45:35.719Z,16.72
2018-08-10T21:48:04.201Z,16.72
2018-08-10T21:50:32.763Z,16.72
2018-08-10T21:53:01.243Z,16.57
2018-08-10T21:55:29.671Z,16.53
2018-08-10T21:57:58.093Z,16.52
2018-08-10T22:00:39.947Z,16.44
2018-08-10T22:03:09.863Z,16.43
2018-08-10T22:05:38.303Z,15.76
2018-08-10T22:08:06.937Z,16.11
2018-08-10T22:10:35.890Z,16.21
2018-08-10T22:13:04.392Z,16.30
2018-08-10T22:15:38.211Z,16.15
2018-08-10T22:18:11.947Z,16.16
2018-08-10T22:20:40.719Z,15.94
2018-08-10T22:23:09.143Z,15.94
2018-08-10T22:25:37.589Z,15.80
2018-08-10T22:28:06.095Z,15.79
2018-08-10T22:30:34.546Z,15.61
2018-08-10T22:33:03.071Z,15.71
2018-08-10T22:35:31.583Z,15.81
2018-08-10T22:38:00.109Z,15.75
2018-08-10T22:40:28.710Z,15.66
2018-08-10T22:42:57.467Z,15.50
2018-08-10T22:45:25.853Z,15.54
2018-08-10T22:47:54.299Z,15.45
2018-08-10T22:50:22.963Z,14.86
2018-08-10T22:52:51.387Z,15.18
2018-08-10T22:55:19.974Z,15.33
2018-08-10T22:57:48.746Z,15.60
2018-08-10T23:00:17.396Z,15.40
2018-08-10T23:02:45.863Z,15.35
2018-08-10T23:05:14.375Z,15.19
2018-08-10T23:07:43.103Z,15.13
2018-08-10T23:10:12.931Z,15.01
2018-08-10T23:12:41.845Z,14.88
2018-08-10T23:15:10.767Z,14.92
2018-08-10T23:17:39.748Z,15.30
2018-08-10T23:20:10.957Z,14.83
2018-08-10T23:22:39.471Z,14.85
2018-08-10T23:25:10.407Z,14.75
2018-08-10T23:27:38.959Z,14.78
2018-08-10T23:30:10.247Z,14.65
2018-08-10T23:32:38.775Z,14.76
2018-08-10T23:35:07.762Z,14.45
2018-08-10T23:37:36.714Z,14.28
2018-08-10T23:40:07.468Z,14.19
2018-08-10T23:42:35.964Z,14.24
2018-08-10T23:45:05.463Z,14.15
2018-08-10T23:47:33.935Z,14.15
2018-08-10T23:50:02.414Z,14.23
2018-08-10T23:52:31.031Z,14.28
2018-08-10T23:54:59.443Z,13.99
2018-08-10T23:57:28.065Z,13.93
2018-08-10T23:59:56.512Z,14.18
